sensor_id;sensor_type;location;lat;lon;timestamp;temperature;humidity
11304;DHT22;5707;49.588;12.148;2023-02-15T00:01:44;-0.80;99.90
11304;DHT22;5707;49.588;12.148;2023-02-15T00:04:13;-0.80;99.90
11304;DHT22;5707;49.588;12.148;2023-02-15T00:06:39;-0.80;99.90
11304;DHT22;5707;49.588;12.148;2023-02-15T00:09:05;-0.80;99.90
11304;DHT22;5707;49.588;12.148;2023-02-15T00:11:30;-0.80;99.90
11304;DHT22;5707;49.588;12.148;2023-02-15T00:14:11;-0.80;99.90
11304;DHT22;5707;49.588;12.148;2023-02-15T00:16:38;-0.80;99.90
11304;DHT22;5707;49.588;12.148;2023-02-15T00:19:04;-0.80;99.90
11304;DHT22;5707;49.588;12.148;2023-02-15T00:21:31;-0.80;99.90
11304;DHT22;5707;49.588;12.148;2023-02-15T00:23:58;-0.80;99.90
11304;DHT22;5707;49.588;12.148;2023-02-15T00:26:24;-0.80;99.90
11304;DHT22;5707;49.588;12.148;2023-02-15T00:28:50;-0.80;99.90
11304;DHT22;5707;49.588;12.148;2023-02-15T00:31:15;-0.80;99.90
11304;DHT22;5707;49.588;12.148;2023-02-15T00:33:41;-0.80;99.90
11304;DHT22;5707;49.588;12.148;2023-02-15T00:36:08;-0.80;99.90
11304;DHT22;5707;49.588;12.148;2023-02-15T00:38:34;-0.80;99.90
11304;DHT22;5707;49.588;12.148;2023-02-15T00:41:03;-0.80;99.90
11304;DHT22;5707;49.588;12.148;2023-02-15T00:43:31;-0.80;99.90
11304;DHT22;5707;49.588;12.148;2023-02-15T00:45:57;-0.90;99.90
11304;DHT22;5707;49.588;12.148;2023-02-15T00:48:23;-0.90;99.90
11304;DHT22;5707;49.588;12.148;2023-02-15T00:50:51;-0.90;99.90
11304;DHT22;5707;49.588;12.148;2023-02-15T00:53:17;-0.90;99.90
11304;DHT22;5707;49.588;12.148;2023-02-15T00:55:43;-0.90;99.90
11304;DHT22;5707;49.588;12.148;2023-02-15T00:58:10;-1.00;99.90
11304;DHT22;5707;49.588;12.148;2023-02-15T01:00:36;-1.00;99.90
11304;DHT22;5707;49.588;12.148;2023-02-15T01:03:03;-1.00;99.90
11304;DHT22;5707;49.588;12.148;2023-02-15T01:05:28;-0.90;99.90
11304;DHT22;5707;49.588;12.148;2023-02-15T01:07:55;-0.90;99.90
11304;DHT22;5707;49.588;12.148;2023-02-15T01:10:21;-0.90;99.90
11304;DHT22;5707;49.588;12.148;2023-02-15T01:12:47;-0.90;99.90
11304;DHT22;5707;49.588;12.148;2023-02-15T01:15:12;-0.90;99.90
11304;DHT22;5707;49.588;12.148;2023-02-15T01:17:38;-1.00;99.90
11304;DHT22;5707;49.588;12.148;2023-02-15T01:20:05;-1.00;99.90
11304;DHT22;5707;49.588;12.148;2023-02-15T01:22:30;-1.00;99.90
11304;DHT22;5707;49.588;12.148;2023-02-15T01:24:56;-0.90;99.90
11304;DHT22;5707;49.588;12.148;2023-02-15T01:27:21;-0.90;99.90
11304;DHT22;5707;49.588;12.148;2023-02-15T01:29:47;-0.90;99.90
11304;DHT22;5707;49.588;12.148;2023-02-15T01:32:13;-1.00;99.90
11304;DHT22;5707;49.588;12.148;2023-02-15T01:34:38;-1.00;99.90
11304;DHT22;5707;49.588;12.148;2023-02-15T01:37:04;-1.00;99.90
11304;DHT22;5707;49.588;12.148;2023-02-15T01:39:29;-1.00;99.90
11304;DHT22;5707;49.588;12.148;2023-02-15T01:41:55;-1.00;99.90
11304;DHT22;5707;49.588;12.148;2023-02-15T01:47:14;-1.00;99.90
11304;DHT22;5707;49.588;12.148;2023-02-15T01:49:42;-1.00;99.90
11304;DHT22;5707;49.588;12.148;2023-02-15T01:52:10;-1.00;99.90
11304;DHT22;5707;49.588;12.148;2023-02-15T01:54:38;-1.00;99.90
11304;DHT22;5707;49.588;12.148;2023-02-15T01:57:12;-1.00;99.90
11304;DHT22;5707;49.588;12.148;2023-02-15T01:59:40;-1.00;99.90
11304;DHT22;5707;49.588;12.148;2023-02-15T02:02:09;-1.00;99.90
11304;DHT22;5707;49.588;12.148;2023-02-15T02:04:45;-1.00;99.90
11304;DHT22;5707;49.588;12.148;2023-02-15T02:07:13;-1.00;99.90
11304;DHT22;5707;49.588;12.148;2023-02-15T02:09:39;-1.00;99.90
11304;DHT22;5707;49.588;12.148;2023-02-15T02:12:06;-1.10;99.90
11304;DHT22;5707;49.588;12.148;2023-02-15T02:14:32;-1.10;99.90
11304;DHT22;5707;49.588;12.148;2023-02-15T02:23:10;-1.20;99.90
11304;DHT22;5707;49.588;12.148;2023-02-15T02:29:02;-1.10;99.90
11304;DHT22;5707;49.588;12.148;2023-02-15T02:39:45;-1.10;99.90
11304;DHT22;5707;49.588;12.148;2023-02-15T02:42:47;-1.10;99.90
11304;DHT22;5707;49.588;12.148;2023-02-15T02:45:35;-1.10;99.90
11304;DHT22;5707;49.588;12.148;2023-02-15T02:48:15;-1.10;99.90
11304;DHT22;5707;49.588;12.148;2023-02-15T02:50:41;-1.10;99.90
11304;DHT22;5707;49.588;12.148;2023-02-15T02:53:09;-1.10;99.90
11304;DHT22;5707;49.588;12.148;2023-02-15T02:58:14;-1.10;99.90
11304;DHT22;5707;49.588;12.148;2023-02-15T03:00:48;-1.10;99.90
11304;DHT22;5707;49.588;12.148;2023-02-15T03:03:23;-1.10;99.90
11304;DHT22;5707;49.588;12.148;2023-02-15T03:05:57;-1.10;99.90
11304;DHT22;5707;49.588;12.148;2023-02-15T03:08:27;-1.10;99.90
11304;DHT22;5707;49.588;12.148;2023-02-15T03:10:55;-1.20;99.90
11304;DHT22;5707;49.588;12.148;2023-02-15T03:13:22;-1.10;99.90
11304;DHT22;5707;49.588;12.148;2023-02-15T03:15:50;-1.20;99.90
11304;DHT22;5707;49.588;12.148;2023-02-15T03:18:44;-1.20;99.90
11304;DHT22;5707;49.588;12.148;2023-02-15T03:21:24;-1.20;99.90
11304;DHT22;5707;49.588;12.148;2023-02-15T03:23:59;-1.20;99.90
11304;DHT22;5707;49.588;12.148;2023-02-15T03:26:26;-1.30;99.90
11304;DHT22;5707;49.588;12.148;2023-02-15T03:28:55;-1.30;99.90
11304;DHT22;5707;49.588;12.148;2023-02-15T03:31:26;-1.30;99.90
11304;DHT22;5707;49.588;12.148;2023-02-15T03:34:00;-1.30;99.90
11304;DHT22;5707;49.588;12.148;2023-02-15T03:41:58;-1.30;99.90
11304;DHT22;5707;49.588;12.148;2023-02-15T03:44:30;-1.40;99.90
11304;DHT22;5707;49.588;12.148;2023-02-15T03:47:06;-1.40;99.90
11304;DHT22;5707;49.588;12.148;2023-02-15T03:49:44;-1.40;99.90
11304;DHT22;5707;49.588;12.148;2023-02-15T03:52:14;-1.40;99.90
11304;DHT22;5707;49.588;12.148;2023-02-15T03:54:41;-1.40;99.90
11304;DHT22;5707;49.588;12.148;2023-02-15T03:57:17;-1.40;99.90
11304;DHT22;5707;49.588;12.148;2023-02-15T04:03:09;-1.50;99.90
11304;DHT22;5707;49.588;12.148;2023-02-15T04:05:36;-1.50;99.90
11304;DHT22;5707;49.588;12.148;2023-02-15T04:08:02;-1.50;99.90
11304;DHT22;5707;49.588;12.148;2023-02-15T04:10:27;-1.50;99.90
11304;DHT22;5707;49.588;12.148;2023-02-15T04:13:11;-1.50;99.90
11304;DHT22;5707;49.588;12.148;2023-02-15T04:15:37;-1.50;99.90
11304;DHT22;5707;49.588;12.148;2023-02-15T04:18:21;-1.50;99.90
11304;DHT22;5707;49.588;12.148;2023-02-15T04:20:47;-1.50;99.90
11304;DHT22;5707;49.588;12.148;2023-02-15T04:23:31;-1.50;99.90
11304;DHT22;5707;49.588;12.148;2023-02-15T04:26:16;-1.50;99.90
11304;DHT22;5707;49.588;12.148;2023-02-15T04:28:41;-1.50;99.90
11304;DHT22;5707;49.588;12.148;2023-02-15T04:31:07;-1.50;99.90
11304;DHT22;5707;49.588;12.148;2023-02-15T04:33:32;-1.50;99.90
11304;DHT22;5707;49.588;12.148;2023-02-15T04:35:58;-1.50;99.90
11304;DHT22;5707;49.588;12.148;2023-02-15T04:38:23;-1.50;99.90
11304;DHT22;5707;49.588;12.148;2023-02-15T04:40:50;-1.50;99.90
11304;DHT22;5707;49.588;12.148;2023-02-15T04:43:17;-1.50;99.90
11304;DHT22;5707;49.588;12.148;2023-02-15T04:45:48;-1.50;99.90
11304;DHT22;5707;49.588;12.148;2023-02-15T04:48:14;-1.50;99.90
11304;DHT22;5707;49.588;12.148;2023-02-15T04:50:40;-1.50;99.90
11304;DHT22;5707;49.588;12.148;2023-02-15T04:53:05;-1.40;99.90
11304;DHT22;5707;49.588;12.148;2023-02-15T04:55:31;-1.40;99.90
11304;DHT22;5707;49.588;12.148;2023-02-15T04:57:56;-1.50;99.90
11304;DHT22;5707;49.588;12.148;2023-02-15T05:00:22;-1.50;99.90
11304;DHT22;5707;49.588;12.148;2023-02-15T05:02:47;-1.50;99.90
11304;DHT22;5707;49.588;12.148;2023-02-15T05:05:13;-1.40;99.90
11304;DHT22;5707;49.588;12.148;2023-02-15T05:07:40;-1.40;99.90
11304;DHT22;5707;49.588;12.148;2023-02-15T05:10:06;-1.40;99.90
11304;DHT22;5707;49.588;12.148;2023-02-15T05:12:32;-1.40;99.90
11304;DHT22;5707;49.588;12.148;2023-02-15T05:14:57;-1.40;99.90
11304;DHT22;5707;49.588;12.148;2023-02-15T05:17:23;-1.40;99.90
11304;DHT22;5707;49.588;12.148;2023-02-15T05:19:49;-1.40;99.90
11304;DHT22;5707;49.588;12.148;2023-02-15T05:22:14;-1.40;99.90
11304;DHT22;5707;49.588;12.148;2023-02-15T05:24:40;-1.40;99.90
11304;DHT22;5707;49.588;12.148;2023-02-15T05:27:24;-1.50;99.90
11304;DHT22;5707;49.588;12.148;2023-02-15T05:30:09;-1.50;99.90
11304;DHT22;5707;49.588;12.148;2023-02-15T05:32:37;-1.50;99.90
11304;DHT22;5707;49.588;12.148;2023-02-15T05:35:07;-1.50;99.90
11304;DHT22;5707;49.588;12.148;2023-02-15T05:37:33;-1.50;99.90
11304;DHT22;5707;49.588;12.148;2023-02-15T05:39:58;-1.50;99.90
11304;DHT22;5707;49.588;12.148;2023-02-15T05:42:24;-1.50;99.90
11304;DHT22;5707;49.588;12.148;2023-02-15T05:44:49;-1.50;99.90
11304;DHT22;5707;49.588;12.148;2023-02-15T05:47:15;-1.50;99.90
11304;DHT22;5707;49.588;12.148;2023-02-15T05:49:40;-1.50;99.90
11304;DHT22;5707;49.588;12.148;2023-02-15T05:52:06;-1.50;99.90
11304;DHT22;5707;49.588;12.148;2023-02-15T05:54:32;-1.50;99.90
11304;DHT22;5707;49.588;12.148;2023-02-15T05:56:57;-1.50;99.90
11304;DHT22;5707;49.588;12.148;2023-02-15T05:59:23;-1.50;99.90
11304;DHT22;5707;49.588;12.148;2023-02-15T06:01:48;-1.60;99.90
11304;DHT22;5707;49.588;12.148;2023-02-15T06:04:14;-1.60;99.90
11304;DHT22;5707;49.588;12.148;2023-02-15T06:06:39;-1.60;99.90
11304;DHT22;5707;49.588;12.148;2023-02-15T06:09:05;-1.60;99.90
11304;DHT22;5707;49.588;12.148;2023-02-15T06:11:31;-1.60;99.90
11304;DHT22;5707;49.588;12.148;2023-02-15T06:13:56;-1.50;99.90
11304;DHT22;5707;49.588;12.148;2023-02-15T06:16:22;-1.60;99.90
11304;DHT22;5707;49.588;12.148;2023-02-15T06:18:48;-1.60;99.90
11304;DHT22;5707;49.588;12.148;2023-02-15T06:21:13;-1.60;99.90
11304;DHT22;5707;49.588;12.148;2023-02-15T06:23:39;-1.50;99.90
11304;DHT22;5707;49.588;12.148;2023-02-15T06:26:04;-1.50;99.90
11304;DHT22;5707;49.588;12.148;2023-02-15T06:28:30;-1.50;99.90
11304;DHT22;5707;49.588;12.148;2023-02-15T06:30:56;-1.50;99.90
11304;DHT22;5707;49.588;12.148;2023-02-15T06:33:22;-1.50;99.90
11304;DHT22;5707;49.588;12.148;2023-02-15T06:35:47;-1.50;99.90
11304;DHT22;5707;49.588;12.148;2023-02-15T06:38:13;-1.40;99.90
11304;DHT22;5707;49.588;12.148;2023-02-15T06:40:39;-1.40;99.90
11304;DHT22;5707;49.588;12.148;2023-02-15T06:43:05;-1.30;99.90
11304;DHT22;5707;49.588;12.148;2023-02-15T06:45:30;-1.30;99.90
11304;DHT22;5707;49.588;12.148;2023-02-15T06:47:56;-1.30;99.90
11304;DHT22;5707;49.588;12.148;2023-02-15T06:50:21;-1.20;99.90
11304;DHT22;5707;49.588;12.148;2023-02-15T06:52:47;-1.20;99.90
11304;DHT22;5707;49.588;12.148;2023-02-15T06:55:12;-1.10;99.90
11304;DHT22;5707;49.588;12.148;2023-02-15T06:57:38;-1.10;99.90
11304;DHT22;5707;49.588;12.148;2023-02-15T07:00:04;-1.00;99.90
11304;DHT22;5707;49.588;12.148;2023-02-15T07:02:31;-1.00;99.90
11304;DHT22;5707;49.588;12.148;2023-02-15T07:04:57;-0.90;99.90
11304;DHT22;5707;49.588;12.148;2023-02-15T07:07:22;-0.90;99.90
11304;DHT22;5707;49.588;12.148;2023-02-15T07:09:48;-0.90;99.90
11304;DHT22;5707;49.588;12.148;2023-02-15T07:12:14;-0.80;99.90
11304;DHT22;5707;49.588;12.148;2023-02-15T07:14:58;-0.80;99.90
11304;DHT22;5707;49.588;12.148;2023-02-15T07:17:24;-0.70;99.90
11304;DHT22;5707;49.588;12.148;2023-02-15T07:19:49;-0.70;99.90
11304;DHT22;5707;49.588;12.148;2023-02-15T07:22:15;-0.70;99.90
11304;DHT22;5707;49.588;12.148;2023-02-15T07:24:40;-0.60;99.90
11304;DHT22;5707;49.588;12.148;2023-02-15T07:27:07;-0.60;99.90
11304;DHT22;5707;49.588;12.148;2023-02-15T07:29:33;-0.60;99.90
11304;DHT22;5707;49.588;12.148;2023-02-15T07:31:58;-0.60;99.90
11304;DHT22;5707;49.588;12.148;2023-02-15T07:34:24;-0.50;99.90
11304;DHT22;5707;49.588;12.148;2023-02-15T07:36:50;-0.50;99.90
11304;DHT22;5707;49.588;12.148;2023-02-15T07:39:16;-0.50;99.90
11304;DHT22;5707;49.588;12.148;2023-02-15T07:41:41;-0.40;99.90
11304;DHT22;5707;49.588;12.148;2023-02-15T07:44:14;-0.30;99.90
11304;DHT22;5707;49.588;12.148;2023-02-15T07:46:40;-0.20;99.90
11304;DHT22;5707;49.588;12.148;2023-02-15T07:49:05;-0.20;99.90
11304;DHT22;5707;49.588;12.148;2023-02-15T07:51:31;-0.10;99.90
11304;DHT22;5707;49.588;12.148;2023-02-15T07:53:56;-0.10;99.90
11304;DHT22;5707;49.588;12.148;2023-02-15T07:56:22;0.00;99.90
11304;DHT22;5707;49.588;12.148;2023-02-15T07:58:48;-0.10;99.90
11304;DHT22;5707;49.588;12.148;2023-02-15T08:03:43;-0.10;99.90
11304;DHT22;5707;49.588;12.148;2023-02-15T08:06:08;0.00;99.90
11304;DHT22;5707;49.588;12.148;2023-02-15T08:08:35;0.10;99.90
11304;DHT22;5707;49.588;12.148;2023-02-15T08:11:20;0.10;99.90
11304;DHT22;5707;49.588;12.148;2023-02-15T08:16:39;0.20;99.90
11304;DHT22;5707;49.588;12.148;2023-02-15T08:21:37;0.40;99.90
11304;DHT22;5707;49.588;12.148;2023-02-15T08:24:04;0.40;99.90
11304;DHT22;5707;49.588;12.148;2023-02-15T08:26:30;0.40;99.90
11304;DHT22;5707;49.588;12.148;2023-02-15T08:28:57;0.30;99.90
11304;DHT22;5707;49.588;12.148;2023-02-15T08:31:23;0.40;99.90
11304;DHT22;5707;49.588;12.148;2023-02-15T08:33:50;0.50;99.90
11304;DHT22;5707;49.588;12.148;2023-02-15T08:36:18;0.60;99.90
11304;DHT22;5707;49.588;12.148;2023-02-15T08:38:44;0.60;99.90
11304;DHT22;5707;49.588;12.148;2023-02-15T08:41:11;0.60;99.90
11304;DHT22;5707;49.588;12.148;2023-02-15T08:43:37;0.60;99.90
11304;DHT22;5707;49.588;12.148;2023-02-15T08:46:04;0.70;99.90
11304;DHT22;5707;49.588;12.148;2023-02-15T08:48:30;0.70;99.90
11304;DHT22;5707;49.588;12.148;2023-02-15T08:50:55;0.70;99.90
11304;DHT22;5707;49.588;12.148;2023-02-15T08:53:21;0.60;99.90
11304;DHT22;5707;49.588;12.148;2023-02-15T08:55:54;0.70;99.90
11304;DHT22;5707;49.588;12.148;2023-02-15T08:58:20;0.70;99.90
11304;DHT22;5707;49.588;12.148;2023-02-15T09:00:45;0.80;99.90
11304;DHT22;5707;49.588;12.148;2023-02-15T09:03:11;0.90;99.90
11304;DHT22;5707;49.588;12.148;2023-02-15T09:05:36;0.90;99.90
11304;DHT22;5707;49.588;12.148;2023-02-15T09:08:02;0.90;99.90
11304;DHT22;5707;49.588;12.148;2023-02-15T09:10:27;1.00;99.90
11304;DHT22;5707;49.588;12.148;2023-02-15T09:12:53;1.20;99.90
11304;DHT22;5707;49.588;12.148;2023-02-15T09:15:19;1.20;99.90
11304;DHT22;5707;49.588;12.148;2023-02-15T09:17:44;1.20;99.90
11304;DHT22;5707;49.588;12.148;2023-02-15T09:20:10;1.10;99.90
11304;DHT22;5707;49.588;12.148;2023-02-15T09:22:35;1.30;99.90
11304;DHT22;5707;49.588;12.148;2023-02-15T09:25:01;1.50;99.90
11304;DHT22;5707;49.588;12.148;2023-02-15T09:27:26;1.60;99.90
11304;DHT22;5707;49.588;12.148;2023-02-15T09:29:52;1.70;99.90
11304;DHT22;5707;49.588;12.148;2023-02-15T09:32:18;1.90;99.90
11304;DHT22;5707;49.588;12.148;2023-02-15T09:34:43;2.10;99.90
11304;DHT22;5707;49.588;12.148;2023-02-15T09:37:09;2.10;99.90
11304;DHT22;5707;49.588;12.148;2023-02-15T09:39:37;2.20;99.90
11304;DHT22;5707;49.588;12.148;2023-02-15T09:56:45;2.50;99.90
11304;DHT22;5707;49.588;12.148;2023-02-15T10:05:05;2.60;99.90
11304;DHT22;5707;49.588;12.148;2023-02-15T10:13:34;2.50;99.90
11304;DHT22;5707;49.588;12.148;2023-02-15T10:24:17;2.60;99.90
11304;DHT22;5707;49.588;12.148;2023-02-15T10:26:47;2.60;99.90
11304;DHT22;5707;49.588;12.148;2023-02-15T10:29:35;2.60;99.90
11304;DHT22;5707;49.588;12.148;2023-02-15T10:32:22;2.60;99.90
11304;DHT22;5707;49.588;12.148;2023-02-15T10:34:52;2.60;99.90
11304;DHT22;5707;49.588;12.148;2023-02-15T10:45:34;2.80;99.90
11304;DHT22;5707;49.588;12.148;2023-02-15T10:51:05;2.90;99.90
11304;DHT22;5707;49.588;12.148;2023-02-15T10:57:24;3.00;99.90
11304;DHT22;5707;49.588;12.148;2023-02-15T11:06:00;2.80;99.90
11304;DHT22;5707;49.588;12.148;2023-02-15T11:08:32;2.80;99.90
11304;DHT22;5707;49.588;12.148;2023-02-15T11:11:02;2.70;99.90
11304;DHT22;5707;49.588;12.148;2023-02-15T11:13:34;2.90;99.90
11304;DHT22;5707;49.588;12.148;2023-02-15T11:16:16;3.00;99.90
11304;DHT22;5707;49.588;12.148;2023-02-15T11:18:53;3.10;99.90
11304;DHT22;5707;49.588;12.148;2023-02-15T11:21:27;3.20;99.90
11304;DHT22;5707;49.588;12.148;2023-02-15T11:23:54;3.40;99.90
11304;DHT22;5707;49.588;12.148;2023-02-15T11:32:02;3.30;99.90
11304;DHT22;5707;49.588;12.148;2023-02-15T11:34:37;3.20;99.90
11304;DHT22;5707;49.588;12.148;2023-02-15T11:37:11;3.20;99.90
11304;DHT22;5707;49.588;12.148;2023-02-15T11:39:38;3.40;99.90
11304;DHT22;5707;49.588;12.148;2023-02-15T11:42:11;3.40;99.90
11304;DHT22;5707;49.588;12.148;2023-02-15T11:47:20;3.30;99.90
11304;DHT22;5707;49.588;12.148;2023-02-15T11:49:46;3.20;99.90
11304;DHT22;5707;49.588;12.148;2023-02-15T11:52:14;3.30;99.90
11304;DHT22;5707;49.588;12.148;2023-02-15T11:54:43;3.10;99.90
11304;DHT22;5707;49.588;12.148;2023-02-15T11:57:26;3.00;99.90
11304;DHT22;5707;49.588;12.148;2023-02-15T12:02:32;3.50;99.90
11304;DHT22;5707;49.588;12.148;2023-02-15T12:05:03;3.60;99.90
11304;DHT22;5707;49.588;12.148;2023-02-15T12:07:35;3.60;99.90
11304;DHT22;5707;49.588;12.148;2023-02-15T12:10:19;3.70;99.90
11304;DHT22;5707;49.588;12.148;2023-02-15T12:12:46;3.80;99.90
11304;DHT22;5707;49.588;12.148;2023-02-15T12:15:12;3.80;99.90
11304;DHT22;5707;49.588;12.148;2023-02-15T12:17:49;3.90;99.90
11304;DHT22;5707;49.588;12.148;2023-02-15T12:22:51;3.90;99.90
11304;DHT22;5707;49.588;12.148;2023-02-15T12:28:31;3.90;99.90
11304;DHT22;5707;49.588;12.148;2023-02-15T12:30:58;3.80;99.90
11304;DHT22;5707;49.588;12.148;2023-02-15T12:33:41;3.80;99.90
11304;DHT22;5707;49.588;12.148;2023-02-15T12:36:21;3.60;99.90
11304;DHT22;5707;49.588;12.148;2023-02-15T12:39:27;3.70;99.90
11304;DHT22;5707;49.588;12.148;2023-02-15T12:42:04;3.60;99.90
11304;DHT22;5707;49.588;12.148;2023-02-15T12:44:34;3.60;99.90
11304;DHT22;5707;49.588;12.148;2023-02-15T12:49:43;3.90;99.90
11304;DHT22;5707;49.588;12.148;2023-02-15T12:54:43;3.80;99.90
11304;DHT22;5707;49.588;12.148;2023-02-15T12:57:35;3.70;99.90
11304;DHT22;5707;49.588;12.148;2023-02-15T13:00:06;3.40;99.90
11304;DHT22;5707;49.588;12.148;2023-02-15T13:02:48;3.00;99.90
11304;DHT22;5707;49.588;12.148;2023-02-15T13:05:37;2.90;99.90
11304;DHT22;5707;49.588;12.148;2023-02-15T13:08:10;3.00;99.90
11304;DHT22;5707;49.588;12.148;2023-02-15T13:10:40;3.10;99.90
11304;DHT22;5707;49.588;12.148;2023-02-15T13:13:19;3.30;99.90
11304;DHT22;5707;49.588;12.148;2023-02-15T13:15:50;3.30;99.90
11304;DHT22;5707;49.588;12.148;2023-02-15T13:18:23;3.30;99.90
11304;DHT22;5707;49.588;12.148;2023-02-15T13:20:52;3.20;99.90
11304;DHT22;5707;49.588;12.148;2023-02-15T13:23:36;3.20;99.90
11304;DHT22;5707;49.588;12.148;2023-02-15T13:26:04;3.20;99.90
11304;DHT22;5707;49.588;12.148;2023-02-15T13:28:51;3.00;99.90
11304;DHT22;5707;49.588;12.148;2023-02-15T13:31:19;2.90;99.90
11304;DHT22;5707;49.588;12.148;2023-02-15T13:33:56;2.70;99.90
11304;DHT22;5707;49.588;12.148;2023-02-15T13:36:38;2.60;99.90
11304;DHT22;5707;49.588;12.148;2023-02-15T13:39:54;2.60;99.90
11304;DHT22;5707;49.588;12.148;2023-02-15T13:45:07;2.80;99.90
11304;DHT22;5707;49.588;12.148;2023-02-15T13:55:54;3.00;99.90
11304;DHT22;5707;49.588;12.148;2023-02-15T14:01:13;2.90;99.90
11304;DHT22;5707;49.588;12.148;2023-02-15T14:09:40;2.70;99.90
11304;DHT22;5707;49.588;12.148;2023-02-15T14:21:30;2.40;99.90
11304;DHT22;5707;49.588;12.148;2023-02-15T14:24:15;2.20;99.90
11304;DHT22;5707;49.588;12.148;2023-02-15T14:32:13;1.90;99.90
11304;DHT22;5707;49.588;12.148;2023-02-15T14:34:52;2.10;99.90
11304;DHT22;5707;49.588;12.148;2023-02-15T14:37:29;2.20;99.90
11304;DHT22;5707;49.588;12.148;2023-02-15T14:40:00;2.20;99.90
11304;DHT22;5707;49.588;12.148;2023-02-15T14:42:57;2.30;99.90
11304;DHT22;5707;49.588;12.148;2023-02-15T14:45:45;2.20;99.90
11304;DHT22;5707;49.588;12.148;2023-02-15T14:48:36;2.20;99.90
11304;DHT22;5707;49.588;12.148;2023-02-15T14:51:04;2.10;99.90
11304;DHT22;5707;49.588;12.148;2023-02-15T14:56:25;2.00;99.90
11304;DHT22;5707;49.588;12.148;2023-02-15T15:01:32;1.90;99.90
11304;DHT22;5707;49.588;12.148;2023-02-15T15:04:01;1.90;99.90
11304;DHT22;5707;49.588;12.148;2023-02-15T15:06:38;1.80;99.90
11304;DHT22;5707;49.588;12.148;2023-02-15T15:09:20;1.70;99.90
11304;DHT22;5707;49.588;12.148;2023-02-15T15:11:51;1.60;99.90
11304;DHT22;5707;49.588;12.148;2023-02-15T15:14:42;1.60;99.90
11304;DHT22;5707;49.588;12.148;2023-02-15T15:17:11;1.50;99.90
11304;DHT22;5707;49.588;12.148;2023-02-15T15:22:27;1.40;99.90
11304;DHT22;5707;49.588;12.148;2023-02-15T15:25:11;1.30;99.90
11304;DHT22;5707;49.588;12.148;2023-02-15T15:27:38;1.30;99.90
11304;DHT22;5707;49.588;12.148;2023-02-15T15:35:33;1.10;99.90
11304;DHT22;5707;49.588;12.148;2023-02-15T15:40:40;1.00;99.90
11304;DHT22;5707;49.588;12.148;2023-02-15T15:48:33;0.80;99.90
11304;DHT22;5707;49.588;12.148;2023-02-15T15:51:04;0.80;99.90
11304;DHT22;5707;49.588;12.148;2023-02-15T15:53:37;0.80;99.90
11304;DHT22;5707;49.588;12.148;2023-02-15T15:56:07;0.70;99.90
11304;DHT22;5707;49.588;12.148;2023-02-15T15:58:35;0.70;99.90
11304;DHT22;5707;49.588;12.148;2023-02-15T16:01:08;0.70;99.90
11304;DHT22;5707;49.588;12.148;2023-02-15T16:03:34;0.60;99.90
11304;DHT22;5707;49.588;12.148;2023-02-15T16:06:00;0.60;99.90
11304;DHT22;5707;49.588;12.148;2023-02-15T16:08:31;0.50;99.90
11304;DHT22;5707;49.588;12.148;2023-02-15T16:10:58;0.50;99.90
11304;DHT22;5707;49.588;12.148;2023-02-15T16:13:25;0.50;99.90
11304;DHT22;5707;49.588;12.148;2023-02-15T16:15:53;0.40;99.90
11304;DHT22;5707;49.588;12.148;2023-02-15T16:18:25;0.40;99.90
11304;DHT22;5707;49.588;12.148;2023-02-15T16:20:55;0.30;99.90
11304;DHT22;5707;49.588;12.148;2023-02-15T16:26:32;0.20;99.90
11304;DHT22;5707;49.588;12.148;2023-02-15T16:29:14;0.20;99.90
11304;DHT22;5707;49.588;12.148;2023-02-15T16:31:40;0.10;99.90
11304;DHT22;5707;49.588;12.148;2023-02-15T16:34:14;0.10;99.90
11304;DHT22;5707;49.588;12.148;2023-02-15T16:36:41;0.00;99.90
11304;DHT22;5707;49.588;12.148;2023-02-15T16:39:12;0.00;99.90
11304;DHT22;5707;49.588;12.148;2023-02-15T16:41:41;0.00;99.90
11304;DHT22;5707;49.588;12.148;2023-02-15T16:44:29;0.00;99.90
11304;DHT22;5707;49.588;12.148;2023-02-15T16:46:58;0.00;99.90
11304;DHT22;5707;49.588;12.148;2023-02-15T16:49:26;-0.10;99.90
11304;DHT22;5707;49.588;12.148;2023-02-15T16:52:02;-0.10;99.90
11304;DHT22;5707;49.588;12.148;2023-02-15T16:54:31;-0.10;99.90
11304;DHT22;5707;49.588;12.148;2023-02-15T16:56:57;-0.10;99.90
11304;DHT22;5707;49.588;12.148;2023-02-15T16:59:41;-0.10;99.90
11304;DHT22;5707;49.588;12.148;2023-02-15T17:02:20;-0.10;99.90
11304;DHT22;5707;49.588;12.148;2023-02-15T17:07:32;-0.20;99.90
11304;DHT22;5707;49.588;12.148;2023-02-15T17:09:59;-0.20;99.90
11304;DHT22;5707;49.588;12.148;2023-02-15T17:12:44;-0.20;99.90
11304;DHT22;5707;49.588;12.148;2023-02-15T17:20:27;-0.30;99.90
11304;DHT22;5707;49.588;12.148;2023-02-15T17:22:54;-0.30;99.90
11304;DHT22;5707;49.588;12.148;2023-02-15T17:25:26;-0.40;99.90
11304;DHT22;5707;49.588;12.148;2023-02-15T17:27:54;-0.40;99.90
11304;DHT22;5707;49.588;12.148;2023-02-15T17:30:32;-0.40;99.90
11304;DHT22;5707;49.588;12.148;2023-02-15T17:33:00;-0.40;99.90
11304;DHT22;5707;49.588;12.148;2023-02-15T17:35:31;-0.40;99.90
11304;DHT22;5707;49.588;12.148;2023-02-15T17:38:18;-0.40;99.90
11304;DHT22;5707;49.588;12.148;2023-02-15T17:40:44;-0.40;99.90
11304;DHT22;5707;49.588;12.148;2023-02-15T17:43:10;-0.40;99.90
11304;DHT22;5707;49.588;12.148;2023-02-15T17:45:47;-0.40;99.90
11304;DHT22;5707;49.588;12.148;2023-02-15T17:48:21;-0.40;99.90
11304;DHT22;5707;49.588;12.148;2023-02-15T17:50:47;-0.40;99.90
11304;DHT22;5707;49.588;12.148;2023-02-15T17:53:16;-0.40;99.90
11304;DHT22;5707;49.588;12.148;2023-02-15T17:55:43;-0.50;99.90
11304;DHT22;5707;49.588;12.148;2023-02-15T17:58:13;-0.50;99.90
11304;DHT22;5707;49.588;12.148;2023-02-15T18:00:45;-0.50;99.90
11304;DHT22;5707;49.588;12.148;2023-02-15T18:06:24;-0.60;99.90
11304;DHT22;5707;49.588;12.148;2023-02-15T18:09:11;-0.50;99.90
11304;DHT22;5707;49.588;12.148;2023-02-15T18:11:56;-0.60;99.90
11304;DHT22;5707;49.588;12.148;2023-02-15T18:14:22;-0.60;99.90
11304;DHT22;5707;49.588;12.148;2023-02-15T18:16:47;-0.60;99.90
11304;DHT22;5707;49.588;12.148;2023-02-15T18:19:19;-0.60;99.90
11304;DHT22;5707;49.588;12.148;2023-02-15T18:21:45;-0.70;99.90
11304;DHT22;5707;49.588;12.148;2023-02-15T18:24:17;-0.70;99.90
11304;DHT22;5707;49.588;12.148;2023-02-15T18:26:43;-0.70;99.90
11304;DHT22;5707;49.588;12.148;2023-02-15T18:29:09;-0.80;99.90
11304;DHT22;5707;49.588;12.148;2023-02-15T18:31:35;-0.80;99.90
11304;DHT22;5707;49.588;12.148;2023-02-15T18:34:01;-0.80;99.90
11304;DHT22;5707;49.588;12.148;2023-02-15T18:36:39;-0.80;99.90
11304;DHT22;5707;49.588;12.148;2023-02-15T18:39:24;-0.80;99.90
11304;DHT22;5707;49.588;12.148;2023-02-15T18:41:51;-0.80;99.90
11304;DHT22;5707;49.588;12.148;2023-02-15T18:44:17;-0.80;99.90
11304;DHT22;5707;49.588;12.148;2023-02-15T18:46:42;-0.80;99.90
11304;DHT22;5707;49.588;12.148;2023-02-15T18:49:08;-0.70;99.90
11304;DHT22;5707;49.588;12.148;2023-02-15T18:51:34;-0.70;99.90
11304;DHT22;5707;49.588;12.148;2023-02-15T18:54:05;-0.70;99.90
11304;DHT22;5707;49.588;12.148;2023-02-15T18:56:36;-0.70;99.90
11304;DHT22;5707;49.588;12.148;2023-02-15T18:59:02;-0.70;99.90
11304;DHT22;5707;49.588;12.148;2023-02-15T19:01:28;-0.70;99.90
11304;DHT22;5707;49.588;12.148;2023-02-15T19:03:54;-0.80;99.90